createdAt,value
2019-03-20T00:00:44.737Z,5.80
2019-03-20T00:05:49.034Z,5.37
2019-03-20T00:10:53.279Z,5.63
2019-03-20T00:15:57.555Z,5.60
2019-03-20T00:21:01.813Z,4.53
2019-03-20T00:26:06.045Z,4.33
2019-03-20T00:31:10.278Z,4.37
2019-03-20T00:36:14.508Z,4.40
2019-03-20T00:41:18.748Z,4.83
2019-03-20T00:46:22.977Z,4.13
2019-03-20T00:51:27.233Z,3.33
2019-03-20T00:56:31.463Z,3.60
2019-03-20T01:01:35.718Z,3.97
2019-03-20T01:06:39.936Z,4.40
2019-03-20T01:11:44.176Z,3.43
2019-03-20T01:16:48.411Z,3.73
2019-03-20T01:21:52.651Z,3.67
2019-03-20T01:26:56.887Z,3.47
2019-03-20T01:32:01.102Z,3.07
2019-03-20T01:37:05.337Z,3.30
2019-03-20T01:42:09.570Z,3.00
2019-03-20T01:47:13.796Z,3.27
2019-03-20T01:52:18.104Z,2.77
2019-03-20T01:57:22.444Z,3.47
2019-03-20T02:02:26.663Z,3.30
2019-03-20T02:07:30.901Z,2.83
2019-03-20T02:12:35.144Z,3.47
2019-03-20T02:17:39.444Z,3.43
2019-03-20T02:22:43.820Z,2.80
2019-03-20T02:27:48.052Z,3.47
2019-03-20T02:32:52.290Z,2.73
2019-03-20T02:37:56.517Z,3.20
2019-03-20T02:43:00.756Z,3.50
2019-03-20T02:48:04.994Z,3.13
2019-03-20T02:53:09.220Z,3.37
2019-03-20T02:58:13.456Z,3.37
2019-03-20T03:03:17.743Z,3.57
2019-03-20T03:08:21.972Z,3.63
2019-03-20T03:13:26.219Z,3.00
2019-03-20T03:18:30.448Z,3.03
2019-03-20T03:23:34.676Z,3.43
2019-03-20T03:28:38.907Z,3.63
2019-03-20T03:33:43.143Z,3.10
2019-03-20T03:38:47.363Z,3.63
2019-03-20T03:43:51.619Z,4.13
2019-03-20T03:48:55.914Z,3.57
2019-03-20T03:54:00.142Z,3.60
2019-03-20T03:59:04.373Z,3.30
2019-03-20T04:04:08.594Z,3.00
2019-03-20T04:09:12.830Z,3.00
2019-03-20T04:14:17.060Z,2.90
2019-03-20T04:19:21.286Z,3.37
2019-03-20T04:24:25.579Z,2.97
2019-03-20T04:29:29.798Z,3.97
2019-03-20T04:34:34.024Z,4.70
2019-03-20T04:39:38.315Z,4.33
2019-03-20T04:44:42.550Z,4.83
2019-03-20T04:49:46.787Z,4.60
2019-03-20T04:54:51.004Z,3.37
2019-03-20T04:59:55.242Z,4.00
2019-03-20T05:04:59.479Z,4.17
2019-03-20T05:10:03.970Z,5.50
2019-03-20T05:15:09.160Z,4.30
2019-03-20T05:20:13.644Z,3.63
2019-03-20T05:25:17.939Z,3.70
2019-03-20T05:30:22.161Z,3.80
2019-03-20T05:35:26.391Z,4.37
2019-03-20T05:40:30.627Z,3.63
2019-03-20T05:45:34.871Z,4.17
2019-03-20T05:50:39.104Z,3.40
2019-03-20T05:55:43.533Z,3.33
2019-03-20T06:00:47.769Z,3.17
2019-03-20T06:05:52.003Z,3.30
2019-03-20T06:10:56.243Z,4.20
2019-03-20T06:16:00.514Z,4.97
2019-03-20T06:21:04.756Z,5.23
2019-03-20T06:26:08.989Z,6.20
2019-03-20T06:31:13.220Z,7.50
2019-03-20T06:36:17.511Z,4.23
2019-03-20T06:41:21.744Z,4.00
2019-03-20T06:46:25.983Z,4.63
2019-03-20T06:51:30.229Z,4.57
2019-03-20T06:56:34.657Z,4.87
2019-03-20T07:01:38.703Z,3.90
2019-03-20T07:07:06.119Z,4.27
2019-03-20T07:12:10.356Z,4.57
2019-03-20T07:17:14.731Z,4.30
2019-03-20T07:22:18.952Z,5.40
2019-03-20T07:27:23.185Z,3.70
2019-03-20T07:32:29.843Z,3.77
2019-03-20T07:37:33.742Z,4.53
2019-03-20T07:42:38.102Z,5.13
2019-03-20T07:47:42.444Z,5.20
2019-03-20T07:52:46.680Z,7.03
2019-03-20T07:57:50.917Z,5.00
2019-03-20T08:02:55.304Z,5.80
2019-03-20T08:08:07.379Z,5.03
2019-03-20T08:13:05.714Z,4.70
2019-03-20T08:18:09.927Z,5.00
2019-03-20T08:23:14.381Z,4.43
2019-03-20T08:28:18.612Z,5.60
2019-03-20T08:33:22.867Z,4.67
2019-03-20T08:38:27.143Z,4.50
2019-03-20T08:43:31.389Z,4.00
2019-03-20T08:48:35.686Z,3.73
2019-03-20T08:53:39.916Z,3.77
2019-03-20T08:58:44.241Z,3.67
2019-03-20T09:03:48.582Z,2.80
2019-03-20T09:08:52.919Z,2.97
2019-03-20T09:13:57.202Z,3.23
2019-03-20T09:19:01.494Z,3.17
2019-03-20T09:24:05.938Z,2.60
2019-03-20T09:29:18.469Z,2.20
2019-03-20T09:34:16.637Z,2.37
2019-03-20T09:39:20.904Z,2.70
2019-03-20T09:44:25.531Z,2.77
2019-03-20T09:49:29.770Z,3.00
2019-03-20T09:54:34.140Z,2.87
2019-03-20T09:59:38.526Z,3.30
2019-03-20T10:04:42.863Z,4.47
2019-03-20T10:09:47.109Z,3.53
2019-03-20T10:14:51.341Z,3.87
2019-03-20T10:19:55.577Z,4.17
2019-03-20T10:24:59.827Z,4.63
2019-03-20T10:30:04.779Z,4.87
2019-03-20T10:35:10.052Z,5.50
2019-03-20T10:40:16.071Z,5.87
2019-03-20T10:45:20.363Z,6.53
2019-03-20T10:50:24.618Z,7.10
2019-03-20T10:55:28.878Z,7.10
2019-03-20T11:00:33.538Z,8.70
2019-03-20T11:05:37.785Z,7.95
2019-03-20T11:10:42.430Z,7.42
2019-03-20T11:15:46.826Z,7.58
2019-03-20T11:20:53.526Z,7.67
2019-03-20T11:25:57.116Z,7.62
2019-03-20T11:31:01.350Z,8.35
2019-03-20T11:36:05.602Z,7.58
2019-03-20T11:41:09.868Z,8.53
2019-03-20T11:46:14.128Z,9.58
2019-03-20T11:51:18.380Z,9.00
2019-03-20T11:56:22.622Z,10.28
2019-03-20T12:01:26.890Z,8.25
2019-03-20T12:06:31.134Z,7.50
2019-03-20T12:11:45.421Z,7.25
2019-03-20T12:16:41.415Z,9.10
2019-03-20T12:21:45.663Z,9.55
2019-03-20T12:26:49.903Z,8.20
2019-03-20T12:31:54.145Z,8.55
2019-03-20T12:36:58.372Z,7.53
2019-03-20T12:42:02.729Z,8.10
2019-03-20T12:47:06.999Z,9.95
2019-03-20T12:52:11.247Z,9.05
2019-03-20T12:57:15.499Z,9.18
2019-03-20T13:02:19.903Z,9.08
2019-03-20T13:07:24.164Z,11.45
2019-03-20T13:12:28.857Z,11.10
2019-03-20T13:17:33.189Z,10.85
2019-03-20T13:22:37.525Z,12.18
2019-03-20T13:27:41.803Z,12.95
2019-03-20T13:32:46.608Z,12.18
2019-03-20T13:37:51.359Z,12.00
2019-03-20T13:42:55.605Z,11.97
2019-03-20T13:47:59.873Z,13.50
2019-03-20T13:53:04.207Z,13.40
2019-03-20T13:58:08.444Z,12.07
2019-03-20T14:03:12.717Z,12.37
2019-03-20T14:08:16.951Z,12.47
2019-03-20T14:13:21.188Z,13.65
2019-03-20T14:18:25.440Z,13.65
2019-03-20T14:23:29.692Z,12.95
2019-03-20T14:28:33.936Z,12.85
2019-03-20T14:33:39.099Z,12.95
2019-03-20T14:38:43.355Z,13.08
2019-03-20T14:43:47.608Z,13.40
2019-03-20T14:48:51.843Z,13.90
2019-03-20T14:53:56.080Z,14.07
2019-03-20T14:59:00.384Z,14.95
2019-03-20T15:04:04.639Z,14.03
2019-03-20T15:09:09.871Z,14.23
2019-03-20T15:14:14.583Z,14.30
2019-03-20T15:19:19.214Z,13.43
2019-03-20T15:24:23.451Z,13.60
2019-03-20T15:29:27.882Z,10.32
2019-03-20T15:34:32.120Z,8.35
2019-03-20T15:39:36.393Z,7.60
2019-03-20T15:44:40.638Z,7.12
2019-03-20T15:49:44.903Z,6.28
2019-03-20T15:54:49.132Z,6.92
2019-03-20T15:59:53.399Z,6.70
2019-03-20T16:04:57.679Z,7.35
2019-03-20T16:10:01.921Z,7.33
2019-03-20T16:15:08.336Z,7.92
2019-03-20T16:20:12.841Z,7.42
2019-03-20T16:25:17.263Z,7.90
2019-03-20T16:30:22.373Z,6.67
2019-03-20T16:35:26.767Z,8.15
2019-03-20T16:40:31.050Z,8.13
2019-03-20T16:45:35.345Z,7.60
2019-03-20T16:50:39.603Z,7.78
2019-03-20T16:55:43.849Z,7.97
2019-03-20T17:00:48.100Z,7.55
2019-03-20T17:05:52.460Z,7.20
2019-03-20T17:10:56.703Z,6.62
2019-03-20T17:16:00.957Z,6.78
2019-03-20T17:21:05.409Z,6.87
2019-03-20T17:26:09.699Z,10.53
2019-03-20T17:31:13.966Z,15.43
2019-03-20T17:36:18.206Z,6.92
2019-03-20T17:41:22.461Z,6.50
2019-03-20T17:46:26.759Z,6.60
2019-03-20T17:51:30.955Z,7.03
2019-03-20T17:56:35.240Z,6.78
2019-03-20T18:01:39.438Z,8.90
2019-03-20T18:06:43.688Z,7.20
2019-03-20T18:11:47.998Z,6.62
2019-03-20T18:16:52.284Z,6.35
2019-03-20T18:21:56.570Z,6.95
2019-03-20T18:27:00.958Z,6.90
2019-03-20T18:32:05.345Z,6.35
2019-03-20T18:37:09.605Z,6.42
2019-03-20T18:42:13.894Z,6.50
2019-03-20T18:47:18.150Z,6.97
2019-03-20T18:52:22.575Z,7.03
2019-03-20T18:57:27.214Z,7.28
2019-03-20T19:02:31.673Z,6.92
2019-03-20T19:07:35.918Z,6.75
2019-03-20T19:12:40.279Z,11.60
2019-03-20T19:17:44.642Z,7.83
2019-03-20T19:22:48.985Z,6.72
2019-03-20T19:27:53.229Z,7.20
2019-03-20T19:32:57.594Z,6.53
2019-03-20T19:38:01.853Z,7.87
2019-03-20T19:43:06.181Z,6.65
2019-03-20T19:48:10.473Z,6.78
2019-03-20T19:53:14.994Z,6.90
2019-03-20T19:58:19.276Z,6.90
2019-03-20T20:03:28.417Z,6.15
2019-03-20T20:08:33.221Z,6.60
2019-03-20T20:13:37.480Z,7.05
2019-03-20T20:18:41.747Z,7.97
2019-03-20T20:23:46.001Z,7.83
2019-03-20T20:28:50.266Z,7.37
2019-03-20T20:33:54.517Z,8.23
2019-03-20T20:38:58.762Z,8.63
2019-03-20T20:44:03.036Z,8.20
2019-03-20T20:49:07.309Z,9.35
2019-03-20T20:54:11.657Z,9.23
2019-03-20T20:59:15.927Z,11.70
2019-03-20T21:04:20.178Z,10.32
2019-03-20T21:09:24.441Z,11.00
2019-03-20T21:14:28.692Z,10.13
2019-03-20T21:19:38.979Z,10.63
2019-03-20T21:24:43.747Z,10.90
2019-03-20T21:30:27.409Z,10.50
2019-03-20T21:36:21.451Z,11.73
2019-03-20T21:42:07.520Z,11.00
2019-03-20T21:47:31.935Z,11.35
2019-03-20T21:52:37.340Z,10.97
2019-03-20T21:58:09.294Z,11.87
2019-03-20T22:03:14.252Z,11.67
2019-03-20T22:08:19.214Z,12.70
2019-03-20T22:14:00.248Z,13.37
2019-03-20T22:20:00.422Z,13.10
2019-03-20T22:25:44.923Z,14.20
2019-03-20T22:30:49.695Z,14.03
2019-03-20T22:36:17.928Z,14.90
2019-03-20T22:41:52.454Z,15.70
2019-03-20T22:47:34.830Z,16.02
2019-03-20T22:53:06.788Z,16.17
2019-03-20T22:58:35.251Z,19.27
2019-03-20T23:03:43.972Z,19.90
2019-03-20T23:08:48.763Z,20.40
2019-03-20T23:13:53.511Z,17.20
2019-03-20T23:18:58.320Z,20.23
2019-03-20T23:24:03.109Z,20.70
2019-03-20T23:29:07.981Z,22.63
2019-03-20T23:34:12.774Z,23.67
2019-03-20T23:39:17.645Z,24.87
2019-03-20T23:44:22.431Z,58.07
2019-03-20T23:49:27.321Z,23.47
2019-03-20T23:54:37.212Z,24.40
2019-03-20T23:59:41.983Z,24.77
